createdAt,value
2022-10-12T00:02:42.035Z,99293.59
2022-10-12T00:08:07.048Z,99286.13
2022-10-12T00:13:31.083Z,99283.22
2022-10-12T00:19:02.335Z,99282.81
2022-10-12T00:24:27.060Z,99291.13
2022-10-12T00:29:52.048Z,99281.81
2022-10-12T00:35:21.183Z,99290.78
2022-10-12T00:40:46.062Z,99292.72
2022-10-12T00:46:12.090Z,99294.28
2022-10-12T00:51:39.089Z,99297.59
2022-10-12T00:57:07.126Z,99292.97
2022-10-12T01:02:35.086Z,99289.16
2022-10-12T01:08:02.283Z,99288.28
2022-10-12T01:13:28.081Z,99285.09
2022-10-12T01:19:00.105Z,99291.38
2022-10-12T01:24:49.087Z,99287.19
2022-10-12T01:30:26.071Z,99282.56
2022-10-12T01:36:03.164Z,99278.19
2022-10-12T01:41:33.218Z,99274.75
2022-10-12T01:47:02.347Z,99275.81
2022-10-12T01:52:43.108Z,99277.06
2022-10-12T01:58:32.138Z,99268.31
2022-10-12T02:04:06.074Z,99273.75
2022-10-12T02:09:36.252Z,99280.13
2022-10-12T02:15:03.151Z,99275.00
2022-10-12T02:20:40.098Z,99279.66
2022-10-12T02:26:06.094Z,99280.91
2022-10-12T02:31:43.140Z,99286.25
2022-10-12T02:37:18.315Z,99270.66
2022-10-12T02:43:09.259Z,99279.59
2022-10-12T02:48:37.132Z,99272.56
2022-10-12T02:54:05.459Z,99256.56
2022-10-12T02:59:30.167Z,99261.22
2022-10-12T03:04:55.149Z,99262.28
2022-10-12T03:10:23.152Z,99259.25
2022-10-12T03:15:48.116Z,99251.53
2022-10-12T03:21:13.133Z,99246.41
2022-10-12T03:26:41.204Z,99245.75
2022-10-12T03:32:05.445Z,99247.94
2022-10-12T03:37:30.160Z,99247.47
2022-10-12T03:42:57.147Z,99247.75
2022-10-12T03:48:22.123Z,99242.72
2022-10-12T03:53:46.202Z,99253.75
2022-10-12T03:59:15.167Z,99254.69
2022-10-12T04:04:50.368Z,99259.38
2022-10-12T04:10:19.192Z,99257.84
2022-10-12T04:15:47.170Z,99251.84
2022-10-12T04:21:13.141Z,99253.25
2022-10-12T04:26:39.159Z,99248.28
2022-10-12T04:32:12.192Z,99251.22
2022-10-12T04:37:37.654Z,99250.38
2022-10-12T04:43:03.194Z,99254.84
2022-10-12T04:48:30.188Z,99259.31
2022-10-12T04:53:55.166Z,99272.53
2022-10-12T04:59:20.155Z,99262.09
2022-10-12T05:04:48.208Z,99269.13
2022-10-12T05:10:12.191Z,99268.16
2022-10-12T05:15:37.205Z,99267.22
2022-10-12T05:21:04.195Z,99262.66
2022-10-12T05:26:29.174Z,99264.38
2022-10-12T05:32:02.163Z,99262.66
2022-10-12T05:37:30.218Z,99264.47
2022-10-12T05:42:55.193Z,99263.69
2022-10-12T05:48:21.210Z,99260.16
2022-10-12T05:53:48.239Z,99264.66
2022-10-12T05:59:13.206Z,99259.97
2022-10-12T06:04:37.252Z,99268.84
2022-10-12T06:10:05.196Z,99273.88
2022-10-12T06:15:29.202Z,99276.28
2022-10-12T06:26:52.242Z,99284.94
2022-10-12T06:32:17.235Z,99269.91
2022-10-12T06:37:50.089Z,99266.94
2022-10-12T06:43:18.199Z,99283.59
2022-10-12T06:48:42.199Z,99285.03
2022-10-12T06:54:07.233Z,99295.22
2022-10-12T06:59:34.314Z,99286.94
2022-10-12T07:05:00.245Z,99296.28
2022-10-12T07:10:25.251Z,99301.97
2022-10-12T07:15:58.215Z,99292.16
2022-10-12T07:21:22.253Z,99294.06
2022-10-12T07:26:47.249Z,99306.44
2022-10-12T07:32:14.358Z,99311.16
2022-10-12T07:37:39.476Z,99303.34
2022-10-12T07:43:15.806Z,99300.06
2022-10-12T07:48:49.114Z,99303.56
2022-10-12T07:54:20.983Z,99300.94
2022-10-12T07:59:46.248Z,99295.25
2022-10-12T08:05:13.245Z,99289.50
2022-10-12T08:10:38.247Z,99285.78
2022-10-12T08:16:04.457Z,99287.44
2022-10-12T08:21:33.232Z,99279.38
2022-10-12T08:27:01.166Z,99280.19
2022-10-12T08:37:59.262Z,99269.06
2022-10-12T08:43:41.281Z,99268.66
2022-10-12T08:49:08.253Z,99255.63
2022-10-12T08:54:38.255Z,99239.25
2022-10-12T09:00:03.283Z,99238.09
2022-10-12T09:05:34.262Z,99231.84
2022-10-12T09:11:09.302Z,99232.56
2022-10-12T09:16:38.323Z,99214.97
2022-10-12T09:22:03.312Z,99214.91
2022-10-12T09:27:32.448Z,99225.03
2022-10-12T09:33:21.299Z,99221.19
2022-10-12T09:38:47.294Z,99219.00
2022-10-12T09:44:16.329Z,99209.03
2022-10-12T09:49:57.335Z,99207.28
2022-10-12T09:55:33.505Z,99196.16
2022-10-12T10:01:00.401Z,99181.59
2022-10-12T10:06:33.325Z,99178.88
2022-10-12T10:11:58.309Z,99169.34
2022-10-12T10:17:33.321Z,99159.38
2022-10-12T10:23:04.478Z,99167.09
2022-10-12T10:28:33.396Z,99162.28
2022-10-12T10:34:00.332Z,99165.25
2022-10-12T10:39:32.311Z,99166.88
2022-10-12T10:45:06.294Z,99157.31
2022-10-12T10:50:39.436Z,99157.47
2022-10-12T10:56:07.318Z,99148.22
2022-10-12T11:01:41.386Z,99152.41
2022-10-12T11:07:13.370Z,99141.22
2022-10-12T11:12:43.370Z,99137.97
2022-10-12T11:18:13.337Z,99134.84
2022-10-12T11:23:48.415Z,99123.06
2022-10-12T11:29:15.335Z,99119.38
2022-10-12T11:34:59.354Z,99116.00
2022-10-12T11:41:00.286Z,99112.63
2022-10-12T11:46:31.353Z,99096.38
2022-10-12T11:51:59.404Z,99095.34
2022-10-12T11:57:30.390Z,99088.19
2022-10-12T12:02:59.368Z,99088.84
2022-10-12T12:08:36.381Z,99077.28
2022-10-12T12:14:39.573Z,99075.28
2022-10-12T12:20:05.487Z,99067.91
2022-10-12T12:25:40.472Z,99055.06
2022-10-12T12:31:16.406Z,99050.09
2022-10-12T12:36:43.715Z,99054.69
2022-10-12T12:42:19.648Z,99048.16
2022-10-12T12:47:50.367Z,99032.41
2022-10-12T12:53:21.409Z,99037.41
2022-10-12T12:59:04.570Z,99029.97
2022-10-12T13:04:50.570Z,99019.97
2022-10-12T13:10:31.398Z,99020.47
2022-10-12T13:16:11.713Z,99017.47
2022-10-12T13:21:48.451Z,99006.69
2022-10-12T13:27:20.423Z,99006.06
2022-10-12T13:32:56.418Z,99005.03
2022-10-12T13:38:35.427Z,98998.31
2022-10-12T13:44:09.441Z,98996.78
2022-10-12T13:49:36.445Z,98994.16
2022-10-12T13:55:05.438Z,98977.81
2022-10-12T14:00:35.487Z,98966.34
2022-10-12T14:06:04.641Z,98971.75
2022-10-12T14:11:32.848Z,98969.75
2022-10-12T14:16:57.431Z,98971.44
2022-10-12T14:22:28.451Z,98964.13
2022-10-12T14:27:56.488Z,98958.44
2022-10-12T14:33:30.482Z,98958.88
2022-10-12T14:39:02.247Z,98955.50
2022-10-12T14:44:38.452Z,98952.13
2022-10-12T14:50:06.870Z,98944.94
2022-10-12T14:55:36.481Z,98947.44
2022-10-12T15:01:06.579Z,98950.19
2022-10-12T15:06:31.497Z,98939.25
2022-10-12T15:11:56.475Z,98935.72
2022-10-12T15:17:29.517Z,98929.78
2022-10-12T15:22:55.474Z,98925.19
2022-10-12T15:28:22.507Z,98919.31
2022-10-12T15:33:51.489Z,98924.34
2022-10-12T15:39:16.535Z,98911.25
2022-10-12T15:44:44.907Z,98923.31
2022-10-12T15:50:13.510Z,98923.91
2022-10-12T15:55:40.491Z,98931.78
2022-10-12T16:01:07.643Z,98935.78
2022-10-12T16:06:35.640Z,98928.81
2022-10-12T16:12:00.547Z,98922.28
2022-10-12T16:17:27.596Z,98925.09
2022-10-12T16:22:54.542Z,98919.78
2022-10-12T16:28:20.696Z,98921.50
2022-10-12T16:33:46.553Z,98917.94
2022-10-12T16:39:14.591Z,98925.50
2022-10-12T16:44:38.534Z,98920.69
2022-10-12T16:50:04.567Z,98925.47
2022-10-12T16:55:34.527Z,98922.28
2022-10-12T17:01:02.795Z,98924.47
2022-10-12T17:06:28.720Z,98920.53
2022-10-12T17:11:56.588Z,98934.56
2022-10-12T17:17:22.003Z,98931.66
2022-10-12T17:22:46.606Z,98927.56
2022-10-12T17:28:14.668Z,98924.78
2022-10-12T17:33:39.604Z,98923.38
2022-10-12T17:39:13.576Z,98930.09
2022-10-12T17:44:47.687Z,98931.06
2022-10-12T17:50:14.680Z,98925.44
2022-10-12T17:55:58.966Z,98926.41
2022-10-12T18:01:26.698Z,98927.38
2022-10-12T18:06:52.590Z,98933.88
2022-10-12T18:12:18.881Z,98940.06
2022-10-12T18:17:45.635Z,98933.75
2022-10-12T18:23:10.610Z,98928.13
2022-10-12T18:28:34.647Z,98933.78
2022-10-12T18:34:03.589Z,98919.66
2022-10-12T18:39:29.623Z,98928.16
2022-10-12T18:44:54.613Z,98929.16
2022-10-12T18:50:22.617Z,98935.69
2022-10-12T18:55:48.628Z,98929.94
2022-10-12T19:01:15.792Z,98947.59
2022-10-12T19:06:45.695Z,98946.34
2022-10-12T19:12:09.635Z,98945.28
2022-10-12T19:17:34.626Z,98937.25
2022-10-12T19:23:02.632Z,98939.69
2022-10-12T19:28:27.705Z,98941.00
2022-10-12T19:33:52.646Z,98930.94
2022-10-12T19:39:24.887Z,98931.28
2022-10-12T19:44:48.646Z,98920.78
2022-10-12T19:50:14.622Z,98912.00
2022-10-12T19:55:45.627Z,98902.41
2022-10-12T20:01:11.697Z,98898.09
2022-10-12T20:06:37.706Z,98891.22
2022-10-12T20:12:05.695Z,98893.38
2022-10-12T20:17:29.630Z,98894.66
2022-10-12T20:22:54.658Z,98900.56
2022-10-12T20:28:22.675Z,98903.44
2022-10-12T20:33:48.678Z,98910.69
2022-10-12T20:39:12.671Z,98910.09
2022-10-12T20:44:46.684Z,98909.72
2022-10-12T20:50:11.652Z,98904.34
2022-10-12T20:55:35.662Z,98904.78
2022-10-12T21:01:11.787Z,98889.38
2022-10-12T21:06:36.895Z,98893.78
2022-10-12T21:12:01.685Z,98893.94
2022-10-12T21:17:28.727Z,98903.16
2022-10-12T21:22:54.688Z,98905.75
2022-10-12T21:28:18.750Z,98906.59
2022-10-12T21:33:47.838Z,98903.78
2022-10-12T21:39:12.694Z,98911.00
2022-10-12T21:44:43.729Z,98925.44
2022-10-12T21:50:14.741Z,98924.00
2022-10-12T21:55:38.727Z,98917.47
2022-10-12T22:01:12.781Z,98911.78
2022-10-12T22:06:41.753Z,98909.78
2022-10-12T22:12:06.731Z,98908.97
2022-10-12T22:17:30.766Z,98919.88
2022-10-12T22:23:04.764Z,98910.66
2022-10-12T22:28:30.747Z,98911.38
2022-10-12T22:33:56.738Z,98920.28
2022-10-12T22:39:27.757Z,98916.34
2022-10-12T22:44:59.718Z,98908.00
2022-10-12T22:50:24.776Z,98886.34
2022-10-12T22:55:51.831Z,98895.97
2022-10-12T23:01:18.745Z,98895.69
2022-10-12T23:06:42.906Z,98901.91
2022-10-12T23:12:11.069Z,98901.06
2022-10-12T23:17:35.756Z,98905.00
2022-10-12T23:23:00.770Z,98909.00
2022-10-12T23:28:28.819Z,98903.16
2022-10-12T23:33:53.827Z,98893.56
2022-10-12T23:39:22.089Z,98895.53
2022-10-12T23:44:55.786Z,98898.78
2022-10-12T23:50:20.755Z,98905.03
2022-10-12T23:55:45.790Z,98907.81
